sensor_id;sensor_type;location;lat;lon;timestamp;temperature;humidity
35541;DHT22;21650;48.840;9.162;2023-02-23T00:01:40;8.00;99.90
35541;DHT22;21650;48.840;9.162;2023-02-23T00:04:06;8.00;99.90
35541;DHT22;21650;48.840;9.162;2023-02-23T00:06:33;8.00;99.90
35541;DHT22;21650;48.840;9.162;2023-02-23T00:09:01;8.10;99.90
35541;DHT22;21650;48.840;9.162;2023-02-23T00:11:31;8.10;99.90
35541;DHT22;21650;48.840;9.162;2023-02-23T00:13:58;8.10;99.90
35541;DHT22;21650;48.840;9.162;2023-02-23T00:16:25;8.10;99.90
35541;DHT22;21650;48.840;9.162;2023-02-23T00:18:58;8.10;99.90
35541;DHT22;21650;48.840;9.162;2023-02-23T00:21:29;8.10;99.90
35541;DHT22;21650;48.840;9.162;2023-02-23T00:24:12;8.10;99.90
35541;DHT22;21650;48.840;9.162;2023-02-23T00:26:40;8.10;99.90
35541;DHT22;21650;48.840;9.162;2023-02-23T00:29:27;8.10;99.90
35541;DHT22;21650;48.840;9.162;2023-02-23T00:31:52;8.10;99.90
35541;DHT22;21650;48.840;9.162;2023-02-23T00:34:20;8.20;99.90
35541;DHT22;21650;48.840;9.162;2023-02-23T00:36:49;8.10;99.90
35541;DHT22;21650;48.840;9.162;2023-02-23T00:39:15;8.20;99.90
35541;DHT22;21650;48.840;9.162;2023-02-23T00:41:50;8.20;99.90
35541;DHT22;21650;48.840;9.162;2023-02-23T00:44:17;8.20;99.90
35541;DHT22;21650;48.840;9.162;2023-02-23T00:46:44;8.10;99.90
35541;DHT22;21650;48.840;9.162;2023-02-23T00:49:11;8.10;99.90
35541;DHT22;21650;48.840;9.162;2023-02-23T00:51:37;8.10;99.90
35541;DHT22;21650;48.840;9.162;2023-02-23T00:54:03;8.10;99.90
35541;DHT22;21650;48.840;9.162;2023-02-23T00:56:29;8.10;99.90
35541;DHT22;21650;48.840;9.162;2023-02-23T00:58:55;8.00;99.90
35541;DHT22;21650;48.840;9.162;2023-02-23T01:01:21;8.00;99.90
35541;DHT22;21650;48.840;9.162;2023-02-23T01:03:47;8.00;99.90
35541;DHT22;21650;48.840;9.162;2023-02-23T01:06:14;8.00;99.90
35541;DHT22;21650;48.840;9.162;2023-02-23T01:08:43;8.00;99.90
35541;DHT22;21650;48.840;9.162;2023-02-23T01:11:11;8.00;99.90
35541;DHT22;21650;48.840;9.162;2023-02-23T01:13:38;7.90;99.90
35541;DHT22;21650;48.840;9.162;2023-02-23T01:16:09;7.90;99.90
35541;DHT22;21650;48.840;9.162;2023-02-23T01:18:36;8.00;99.90
35541;DHT22;21650;48.840;9.162;2023-02-23T01:21:02;8.00;99.90
35541;DHT22;21650;48.840;9.162;2023-02-23T01:23:30;7.90;99.90
35541;DHT22;21650;48.840;9.162;2023-02-23T01:25:57;7.90;99.90
35541;DHT22;21650;48.840;9.162;2023-02-23T01:28:22;7.90;99.90
35541;DHT22;21650;48.840;9.162;2023-02-23T01:30:48;7.90;99.90
35541;DHT22;21650;48.840;9.162;2023-02-23T01:33:14;7.90;99.90
35541;DHT22;21650;48.840;9.162;2023-02-23T01:35:40;7.90;99.90
35541;DHT22;21650;48.840;9.162;2023-02-23T01:38:05;7.90;99.90
35541;DHT22;21650;48.840;9.162;2023-02-23T01:40:31;7.90;99.90
35541;DHT22;21650;48.840;9.162;2023-02-23T01:45:39;7.80;99.90
35541;DHT22;21650;48.840;9.162;2023-02-23T01:48:17;7.80;99.90
35541;DHT22;21650;48.840;9.162;2023-02-23T01:53:15;7.90;99.90
35541;DHT22;21650;48.840;9.162;2023-02-23T01:55:42;7.90;99.90
35541;DHT22;21650;48.840;9.162;2023-02-23T01:58:11;8.00;99.90
35541;DHT22;21650;48.840;9.162;2023-02-23T02:00:41;7.90;99.90
35541;DHT22;21650;48.840;9.162;2023-02-23T02:03:09;7.90;99.90
35541;DHT22;21650;48.840;9.162;2023-02-23T02:05:37;7.90;99.90
35541;DHT22;21650;48.840;9.162;2023-02-23T02:08:05;7.90;99.90
35541;DHT22;21650;48.840;9.162;2023-02-23T02:10:32;8.00;99.90
35541;DHT22;21650;48.840;9.162;2023-02-23T02:13:05;8.00;99.90
35541;DHT22;21650;48.840;9.162;2023-02-23T02:15:36;7.90;99.90
35541;DHT22;21650;48.840;9.162;2023-02-23T02:26:35;7.90;99.90
35541;DHT22;21650;48.840;9.162;2023-02-23T02:29:33;7.80;99.90
35541;DHT22;21650;48.840;9.162;2023-02-23T02:32:08;7.80;99.90
35541;DHT22;21650;48.840;9.162;2023-02-23T02:34:50;7.80;99.90
35541;DHT22;21650;48.840;9.162;2023-02-23T02:40:11;7.80;99.90
35541;DHT22;21650;48.840;9.162;2023-02-23T02:43:02;7.80;99.90
35541;DHT22;21650;48.840;9.162;2023-02-23T02:54:08;7.80;99.90
35541;DHT22;21650;48.840;9.162;2023-02-23T02:56:39;7.80;99.90
35541;DHT22;21650;48.840;9.162;2023-02-23T02:59:14;7.80;99.90
35541;DHT22;21650;48.840;9.162;2023-02-23T03:01:58;7.80;99.90
35541;DHT22;21650;48.840;9.162;2023-02-23T03:04:43;7.80;99.90
35541;DHT22;21650;48.840;9.162;2023-02-23T03:07:50;7.80;99.90
35541;DHT22;21650;48.840;9.162;2023-02-23T03:11:01;7.80;99.90
35541;DHT22;21650;48.840;9.162;2023-02-23T03:17:17;7.80;99.90
35541;DHT22;21650;48.840;9.162;2023-02-23T03:23:41;7.80;99.90
35541;DHT22;21650;48.840;9.162;2023-02-23T03:29:18;7.80;99.90
35541;DHT22;21650;48.840;9.162;2023-02-23T03:35:10;7.80;99.90
35541;DHT22;21650;48.840;9.162;2023-02-23T03:38:15;7.80;99.90
35541;DHT22;21650;48.840;9.162;2023-02-23T03:41:01;7.80;99.90
35541;DHT22;21650;48.840;9.162;2023-02-23T03:44:01;7.90;99.90
35541;DHT22;21650;48.840;9.162;2023-02-23T03:46:47;7.90;99.90
35541;DHT22;21650;48.840;9.162;2023-02-23T03:49:35;7.90;99.90
35541;DHT22;21650;48.840;9.162;2023-02-23T03:52:25;7.80;99.90
35541;DHT22;21650;48.840;9.162;2023-02-23T03:55:15;7.80;99.90
35541;DHT22;21650;48.840;9.162;2023-02-23T03:58:01;7.80;99.90
35541;DHT22;21650;48.840;9.162;2023-02-23T04:00:49;7.80;99.90
35541;DHT22;21650;48.840;9.162;2023-02-23T04:03:37;7.80;99.90
35541;DHT22;21650;48.840;9.162;2023-02-23T04:06:25;7.80;99.90
35541;DHT22;21650;48.840;9.162;2023-02-23T04:09:10;7.80;99.90
35541;DHT22;21650;48.840;9.162;2023-02-23T04:17:17;7.80;99.90
35541;DHT22;21650;48.840;9.162;2023-02-23T04:19:51;7.80;99.90
35541;DHT22;21650;48.840;9.162;2023-02-23T04:22:18;7.80;99.90
35541;DHT22;21650;48.840;9.162;2023-02-23T04:24:43;7.80;99.90
35541;DHT22;21650;48.840;9.162;2023-02-23T04:27:11;7.80;99.90
35541;DHT22;21650;48.840;9.162;2023-02-23T04:29:36;7.80;99.90
35541;DHT22;21650;48.840;9.162;2023-02-23T04:32:02;7.80;99.90
35541;DHT22;21650;48.840;9.162;2023-02-23T04:34:27;7.80;99.90
35541;DHT22;21650;48.840;9.162;2023-02-23T04:36:53;7.80;99.90
35541;DHT22;21650;48.840;9.162;2023-02-23T04:39:18;7.80;99.90
35541;DHT22;21650;48.840;9.162;2023-02-23T04:41:44;7.80;99.90
35541;DHT22;21650;48.840;9.162;2023-02-23T04:44:10;7.80;99.90
35541;DHT22;21650;48.840;9.162;2023-02-23T04:46:35;7.80;99.90
35541;DHT22;21650;48.840;9.162;2023-02-23T04:49:01;7.70;99.90
35541;DHT22;21650;48.840;9.162;2023-02-23T04:51:28;7.70;99.90
35541;DHT22;21650;48.840;9.162;2023-02-23T04:53:55;7.80;99.90
35541;DHT22;21650;48.840;9.162;2023-02-23T04:56:20;7.70;99.90
35541;DHT22;21650;48.840;9.162;2023-02-23T04:58:46;7.70;99.90
35541;DHT22;21650;48.840;9.162;2023-02-23T05:01:11;7.70;99.90
35541;DHT22;21650;48.840;9.162;2023-02-23T05:03:37;7.70;99.90
35541;DHT22;21650;48.840;9.162;2023-02-23T05:06:03;7.70;99.90
35541;DHT22;21650;48.840;9.162;2023-02-23T05:08:28;7.70;99.90
35541;DHT22;21650;48.840;9.162;2023-02-23T05:10:54;7.70;99.90
35541;DHT22;21650;48.840;9.162;2023-02-23T05:13:19;7.70;99.90
35541;DHT22;21650;48.840;9.162;2023-02-23T05:15:46;7.70;99.90
35541;DHT22;21650;48.840;9.162;2023-02-23T05:18:11;7.70;99.90
35541;DHT22;21650;48.840;9.162;2023-02-23T05:20:37;7.80;99.90
35541;DHT22;21650;48.840;9.162;2023-02-23T05:23:02;7.70;99.90
35541;DHT22;21650;48.840;9.162;2023-02-23T05:25:28;7.70;99.90
35541;DHT22;21650;48.840;9.162;2023-02-23T05:27:54;7.70;99.90
35541;DHT22;21650;48.840;9.162;2023-02-23T05:30:19;7.70;99.90
35541;DHT22;21650;48.840;9.162;2023-02-23T05:32:45;7.70;99.90
35541;DHT22;21650;48.840;9.162;2023-02-23T05:35:10;7.70;99.90
35541;DHT22;21650;48.840;9.162;2023-02-23T05:37:37;7.70;99.90
35541;DHT22;21650;48.840;9.162;2023-02-23T05:40:03;7.70;99.90
35541;DHT22;21650;48.840;9.162;2023-02-23T05:42:28;7.70;99.90
35541;DHT22;21650;48.840;9.162;2023-02-23T05:44:54;7.70;99.90
35541;DHT22;21650;48.840;9.162;2023-02-23T05:47:19;7.70;99.90
35541;DHT22;21650;48.840;9.162;2023-02-23T05:49:45;7.70;99.90
35541;DHT22;21650;48.840;9.162;2023-02-23T05:52:11;7.70;99.90
35541;DHT22;21650;48.840;9.162;2023-02-23T05:54:36;7.70;99.90
35541;DHT22;21650;48.840;9.162;2023-02-23T05:57:02;7.70;99.90
35541;DHT22;21650;48.840;9.162;2023-02-23T05:59:28;7.70;99.90
35541;DHT22;21650;48.840;9.162;2023-02-23T06:01:53;7.70;99.90
35541;DHT22;21650;48.840;9.162;2023-02-23T06:04:19;7.70;99.90
35541;DHT22;21650;48.840;9.162;2023-02-23T06:06:46;7.70;99.90
35541;DHT22;21650;48.840;9.162;2023-02-23T06:09:11;7.70;99.90
35541;DHT22;21650;48.840;9.162;2023-02-23T06:11:37;7.70;99.90
35541;DHT22;21650;48.840;9.162;2023-02-23T06:14:02;7.70;99.90
35541;DHT22;21650;48.840;9.162;2023-02-23T06:18:58;7.70;99.90
35541;DHT22;21650;48.840;9.162;2023-02-23T06:21:23;7.70;99.90
35541;DHT22;21650;48.840;9.162;2023-02-23T06:23:49;7.70;99.90
35541;DHT22;21650;48.840;9.162;2023-02-23T06:26:15;7.70;99.90
35541;DHT22;21650;48.840;9.162;2023-02-23T06:28:40;7.70;99.90
35541;DHT22;21650;48.840;9.162;2023-02-23T06:31:06;7.70;99.90
35541;DHT22;21650;48.840;9.162;2023-02-23T06:33:32;7.70;99.90
35541;DHT22;21650;48.840;9.162;2023-02-23T06:35:57;7.70;99.90
35541;DHT22;21650;48.840;9.162;2023-02-23T06:38:23;7.80;99.90
35541;DHT22;21650;48.840;9.162;2023-02-23T06:40:48;7.70;99.90
35541;DHT22;21650;48.840;9.162;2023-02-23T06:43:14;7.70;99.90
35541;DHT22;21650;48.840;9.162;2023-02-23T06:45:39;7.70;99.90
35541;DHT22;21650;48.840;9.162;2023-02-23T06:48:05;7.70;99.90
35541;DHT22;21650;48.840;9.162;2023-02-23T06:50:31;7.80;99.90
35541;DHT22;21650;48.840;9.162;2023-02-23T06:52:57;7.80;99.90
35541;DHT22;21650;48.840;9.162;2023-02-23T06:55:23;7.80;99.90
35541;DHT22;21650;48.840;9.162;2023-02-23T06:57:49;7.80;99.90
35541;DHT22;21650;48.840;9.162;2023-02-23T07:00:16;7.80;99.90
35541;DHT22;21650;48.840;9.162;2023-02-23T07:02:42;7.80;99.90
35541;DHT22;21650;48.840;9.162;2023-02-23T07:05:09;7.90;99.90
35541;DHT22;21650;48.840;9.162;2023-02-23T07:07:35;7.90;99.90
35541;DHT22;21650;48.840;9.162;2023-02-23T07:10:01;7.90;99.90
35541;DHT22;21650;48.840;9.162;2023-02-23T07:12:29;7.90;99.90
35541;DHT22;21650;48.840;9.162;2023-02-23T07:14:55;7.90;99.90
35541;DHT22;21650;48.840;9.162;2023-02-23T07:17:20;8.00;99.90
35541;DHT22;21650;48.840;9.162;2023-02-23T07:19:46;7.90;99.90
35541;DHT22;21650;48.840;9.162;2023-02-23T07:22:12;8.00;99.90
35541;DHT22;21650;48.840;9.162;2023-02-23T07:24:37;8.00;99.90
35541;DHT22;21650;48.840;9.162;2023-02-23T07:27:04;8.00;99.90
35541;DHT22;21650;48.840;9.162;2023-02-23T07:29:29;8.10;99.90
35541;DHT22;21650;48.840;9.162;2023-02-23T07:31:55;8.10;99.90
35541;DHT22;21650;48.840;9.162;2023-02-23T07:34:20;8.20;99.90
35541;DHT22;21650;48.840;9.162;2023-02-23T07:36:46;8.20;99.90
35541;DHT22;21650;48.840;9.162;2023-02-23T07:39:12;8.30;99.90
35541;DHT22;21650;48.840;9.162;2023-02-23T07:41:38;8.40;99.90
35541;DHT22;21650;48.840;9.162;2023-02-23T07:44:03;8.40;99.90
35541;DHT22;21650;48.840;9.162;2023-02-23T07:46:29;8.50;99.90
35541;DHT22;21650;48.840;9.162;2023-02-23T07:48:55;8.60;99.90
35541;DHT22;21650;48.840;9.162;2023-02-23T07:51:20;8.60;99.90
35541;DHT22;21650;48.840;9.162;2023-02-23T07:53:46;8.70;99.90
35541;DHT22;21650;48.840;9.162;2023-02-23T07:56:12;8.80;99.90
35541;DHT22;21650;48.840;9.162;2023-02-23T07:58:41;8.80;99.90
35541;DHT22;21650;48.840;9.162;2023-02-23T08:01:08;8.80;99.90
35541;DHT22;21650;48.840;9.162;2023-02-23T08:03:34;8.90;99.90
35541;DHT22;21650;48.840;9.162;2023-02-23T08:05:59;8.90;99.90
35541;DHT22;21650;48.840;9.162;2023-02-23T08:08:26;8.90;99.90
35541;DHT22;21650;48.840;9.162;2023-02-23T08:10:59;9.00;99.90
35541;DHT22;21650;48.840;9.162;2023-02-23T08:13:24;9.00;99.90
35541;DHT22;21650;48.840;9.162;2023-02-23T08:15:50;9.10;99.90
35541;DHT22;21650;48.840;9.162;2023-02-23T08:18:16;9.10;99.90
35541;DHT22;21650;48.840;9.162;2023-02-23T08:20:41;9.10;99.90
35541;DHT22;21650;48.840;9.162;2023-02-23T08:23:07;9.20;99.90
35541;DHT22;21650;48.840;9.162;2023-02-23T08:25:34;9.20;99.90
35541;DHT22;21650;48.840;9.162;2023-02-23T08:27:59;9.30;99.90
35541;DHT22;21650;48.840;9.162;2023-02-23T08:30:29;9.40;99.90
35541;DHT22;21650;48.840;9.162;2023-02-23T08:32:55;9.40;99.90
35541;DHT22;21650;48.840;9.162;2023-02-23T08:35:20;9.50;99.90
35541;DHT22;21650;48.840;9.162;2023-02-23T08:37:46;9.50;99.90
35541;DHT22;21650;48.840;9.162;2023-02-23T08:40:12;9.50;99.90
35541;DHT22;21650;48.840;9.162;2023-02-23T08:42:40;9.60;99.90
35541;DHT22;21650;48.840;9.162;2023-02-23T08:45:06;9.60;99.90
35541;DHT22;21650;48.840;9.162;2023-02-23T08:47:32;9.70;99.90
35541;DHT22;21650;48.840;9.162;2023-02-23T08:49:58;9.70;99.90
35541;DHT22;21650;48.840;9.162;2023-02-23T08:52:24;9.80;99.90
35541;DHT22;21650;48.840;9.162;2023-02-23T08:54:50;9.80;99.90
35541;DHT22;21650;48.840;9.162;2023-02-23T08:57:15;9.80;99.90
35541;DHT22;21650;48.840;9.162;2023-02-23T08:59:42;9.90;99.90
35541;DHT22;21650;48.840;9.162;2023-02-23T09:02:11;9.90;99.90
35541;DHT22;21650;48.840;9.162;2023-02-23T09:04:38;10.00;99.90
35541;DHT22;21650;48.840;9.162;2023-02-23T09:07:07;9.90;99.90
35541;DHT22;21650;48.840;9.162;2023-02-23T09:09:33;9.90;99.90
35541;DHT22;21650;48.840;9.162;2023-02-23T09:11:59;9.90;99.90
35541;DHT22;21650;48.840;9.162;2023-02-23T09:14:25;9.90;99.90
35541;DHT22;21650;48.840;9.162;2023-02-23T09:16:51;9.90;99.90
35541;DHT22;21650;48.840;9.162;2023-02-23T09:19:17;9.90;99.90
35541;DHT22;21650;48.840;9.162;2023-02-23T09:21:43;9.90;99.90
35541;DHT22;21650;48.840;9.162;2023-02-23T09:24:09;10.00;99.90
35541;DHT22;21650;48.840;9.162;2023-02-23T09:26:34;10.00;99.90
35541;DHT22;21650;48.840;9.162;2023-02-23T09:29:05;10.10;99.90
35541;DHT22;21650;48.840;9.162;2023-02-23T09:31:31;10.20;99.90
35541;DHT22;21650;48.840;9.162;2023-02-23T09:33:56;10.30;99.90
35541;DHT22;21650;48.840;9.162;2023-02-23T09:36:25;10.30;99.90
35541;DHT22;21650;48.840;9.162;2023-02-23T09:38:53;10.40;99.90
35541;DHT22;21650;48.840;9.162;2023-02-23T09:41:47;10.40;99.90
35541;DHT22;21650;48.840;9.162;2023-02-23T09:47:20;10.40;99.90
35541;DHT22;21650;48.840;9.162;2023-02-23T09:49:50;10.50;99.90
35541;DHT22;21650;48.840;9.162;2023-02-23T09:52:21;10.60;99.90
35541;DHT22;21650;48.840;9.162;2023-02-23T09:54:49;10.60;99.90
35541;DHT22;21650;48.840;9.162;2023-02-23T09:57:18;10.70;99.90
35541;DHT22;21650;48.840;9.162;2023-02-23T09:59:46;10.80;99.90
35541;DHT22;21650;48.840;9.162;2023-02-23T10:02:36;10.80;99.90
35541;DHT22;21650;48.840;9.162;2023-02-23T10:05:06;10.90;99.90
35541;DHT22;21650;48.840;9.162;2023-02-23T10:07:51;10.90;99.90
35541;DHT22;21650;48.840;9.162;2023-02-23T10:10:33;10.80;99.90
35541;DHT22;21650;48.840;9.162;2023-02-23T10:13:24;10.80;99.90
35541;DHT22;21650;48.840;9.162;2023-02-23T10:16:00;10.90;99.90
35541;DHT22;21650;48.840;9.162;2023-02-23T10:23:42;11.20;99.90
35541;DHT22;21650;48.840;9.162;2023-02-23T10:26:14;11.30;99.90
35541;DHT22;21650;48.840;9.162;2023-02-23T10:28:40;11.40;99.90
35541;DHT22;21650;48.840;9.162;2023-02-23T10:31:41;11.50;99.90
35541;DHT22;21650;48.840;9.162;2023-02-23T10:34:16;11.70;99.90
35541;DHT22;21650;48.840;9.162;2023-02-23T10:37:02;11.50;99.90
35541;DHT22;21650;48.840;9.162;2023-02-23T10:39:29;11.60;99.90
35541;DHT22;21650;48.840;9.162;2023-02-23T10:41:58;11.80;99.90
35541;DHT22;21650;48.840;9.162;2023-02-23T10:44:26;11.80;99.90
35541;DHT22;21650;48.840;9.162;2023-02-23T10:47:00;11.90;99.90
35541;DHT22;21650;48.840;9.162;2023-02-23T10:49:34;12.10;99.90
35541;DHT22;21650;48.840;9.162;2023-02-23T10:52:03;12.00;99.90
35541;DHT22;21650;48.840;9.162;2023-02-23T10:54:35;12.10;99.90
35541;DHT22;21650;48.840;9.162;2023-02-23T10:57:02;12.10;99.90
35541;DHT22;21650;48.840;9.162;2023-02-23T10:59:29;12.20;99.90
35541;DHT22;21650;48.840;9.162;2023-02-23T11:01:54;12.20;99.90
35541;DHT22;21650;48.840;9.162;2023-02-23T11:04:22;12.20;99.90
35541;DHT22;21650;48.840;9.162;2023-02-23T11:06:49;12.30;99.90
35541;DHT22;21650;48.840;9.162;2023-02-23T11:09:27;12.40;99.90
35541;DHT22;21650;48.840;9.162;2023-02-23T11:12:02;12.40;99.90
35541;DHT22;21650;48.840;9.162;2023-02-23T11:14:30;12.40;99.90
35541;DHT22;21650;48.840;9.162;2023-02-23T11:16:57;12.60;99.90
35541;DHT22;21650;48.840;9.162;2023-02-23T11:19:33;12.60;99.90
35541;DHT22;21650;48.840;9.162;2023-02-23T11:22:04;12.60;99.90
35541;DHT22;21650;48.840;9.162;2023-02-23T11:24:35;12.60;99.90
35541;DHT22;21650;48.840;9.162;2023-02-23T11:27:09;12.80;99.90
35541;DHT22;21650;48.840;9.162;2023-02-23T11:29:44;12.80;99.90
35541;DHT22;21650;48.840;9.162;2023-02-23T11:32:17;12.80;99.90
35541;DHT22;21650;48.840;9.162;2023-02-23T11:34:45;12.80;99.90
35541;DHT22;21650;48.840;9.162;2023-02-23T11:39:54;13.00;99.90
35541;DHT22;21650;48.840;9.162;2023-02-23T11:42:22;13.00;99.90
35541;DHT22;21650;48.840;9.162;2023-02-23T11:47:28;13.20;99.90
35541;DHT22;21650;48.840;9.162;2023-02-23T11:49:54;13.30;99.90
35541;DHT22;21650;48.840;9.162;2023-02-23T11:52:22;13.20;99.90
35541;DHT22;21650;48.840;9.162;2023-02-23T11:54:57;13.20;99.90
35541;DHT22;21650;48.840;9.162;2023-02-23T11:57:29;13.10;99.90
35541;DHT22;21650;48.840;9.162;2023-02-23T11:59:57;13.10;99.90
35541;DHT22;21650;48.840;9.162;2023-02-23T12:02:29;13.10;99.90
35541;DHT22;21650;48.840;9.162;2023-02-23T12:05:16;13.10;99.90
35541;DHT22;21650;48.840;9.162;2023-02-23T12:10:42;13.20;99.90
35541;DHT22;21650;48.840;9.162;2023-02-23T12:15:49;13.10;99.90
35541;DHT22;21650;48.840;9.162;2023-02-23T12:18:33;13.10;99.90
35541;DHT22;21650;48.840;9.162;2023-02-23T12:24:31;13.20;99.90
35541;DHT22;21650;48.840;9.162;2023-02-23T12:29:58;13.10;99.90
35541;DHT22;21650;48.840;9.162;2023-02-23T12:32:48;13.20;99.90
35541;DHT22;21650;48.840;9.162;2023-02-23T12:38:04;13.20;99.90
35541;DHT22;21650;48.840;9.162;2023-02-23T12:40:35;13.10;99.90
35541;DHT22;21650;48.840;9.162;2023-02-23T12:45:50;12.90;99.90
35541;DHT22;21650;48.840;9.162;2023-02-23T12:51:21;12.90;99.90
35541;DHT22;21650;48.840;9.162;2023-02-23T12:53:48;12.80;99.90
35541;DHT22;21650;48.840;9.162;2023-02-23T13:01:58;12.60;99.90
35541;DHT22;21650;48.840;9.162;2023-02-23T13:04:36;12.60;99.90
35541;DHT22;21650;48.840;9.162;2023-02-23T13:15:11;12.50;99.90
35541;DHT22;21650;48.840;9.162;2023-02-23T13:18:01;12.40;99.90
35541;DHT22;21650;48.840;9.162;2023-02-23T13:20:44;12.40;99.90
35541;DHT22;21650;48.840;9.162;2023-02-23T13:23:33;12.40;99.90
35541;DHT22;21650;48.840;9.162;2023-02-23T13:26:12;12.40;99.90
35541;DHT22;21650;48.840;9.162;2023-02-23T13:28:47;12.40;99.90
35541;DHT22;21650;48.840;9.162;2023-02-23T13:31:37;12.40;99.90
35541;DHT22;21650;48.840;9.162;2023-02-23T13:34:08;12.40;99.90
35541;DHT22;21650;48.840;9.162;2023-02-23T13:36:34;12.40;99.90
35541;DHT22;21650;48.840;9.162;2023-02-23T13:42:16;12.40;99.90
35541;DHT22;21650;48.840;9.162;2023-02-23T13:44:56;12.40;99.90
35541;DHT22;21650;48.840;9.162;2023-02-23T13:50:16;12.50;99.90
35541;DHT22;21650;48.840;9.162;2023-02-23T13:52:45;12.60;99.90
35541;DHT22;21650;48.840;9.162;2023-02-23T13:58:03;12.60;99.90
35541;DHT22;21650;48.840;9.162;2023-02-23T14:00:29;12.70;99.90
35541;DHT22;21650;48.840;9.162;2023-02-23T14:02:56;12.70;99.90
35541;DHT22;21650;48.840;9.162;2023-02-23T14:05:24;12.70;99.90
35541;DHT22;21650;48.840;9.162;2023-02-23T14:08:01;12.80;99.90
35541;DHT22;21650;48.840;9.162;2023-02-23T14:10:39;12.80;99.90
35541;DHT22;21650;48.840;9.162;2023-02-23T14:20:48;12.90;99.90
35541;DHT22;21650;48.840;9.162;2023-02-23T14:23:30;12.90;99.90
35541;DHT22;21650;48.840;9.162;2023-02-23T14:26:11;12.80;99.90
35541;DHT22;21650;48.840;9.162;2023-02-23T14:28:43;12.70;99.90
35541;DHT22;21650;48.840;9.162;2023-02-23T14:33:55;12.70;99.90
35541;DHT22;21650;48.840;9.162;2023-02-23T14:41:25;12.70;99.90
35541;DHT22;21650;48.840;9.162;2023-02-23T14:44:12;12.80;99.90
35541;DHT22;21650;48.840;9.162;2023-02-23T14:46:52;12.80;99.90
35541;DHT22;21650;48.840;9.162;2023-02-23T14:49:20;12.80;99.90
35541;DHT22;21650;48.840;9.162;2023-02-23T14:51:50;12.90;99.90
35541;DHT22;21650;48.840;9.162;2023-02-23T14:54:34;12.90;99.90
35541;DHT22;21650;48.840;9.162;2023-02-23T14:57:02;12.90;99.90
35541;DHT22;21650;48.840;9.162;2023-02-23T14:59:36;12.90;99.90
35541;DHT22;21650;48.840;9.162;2023-02-23T15:02:07;12.90;99.90
35541;DHT22;21650;48.840;9.162;2023-02-23T15:04:33;12.80;99.90
35541;DHT22;21650;48.840;9.162;2023-02-23T15:07:04;12.80;99.90
35541;DHT22;21650;48.840;9.162;2023-02-23T15:09:37;12.70;99.90
35541;DHT22;21650;48.840;9.162;2023-02-23T15:12:19;12.60;99.90
35541;DHT22;21650;48.840;9.162;2023-02-23T15:14:47;12.50;99.90
35541;DHT22;21650;48.840;9.162;2023-02-23T15:17:23;12.50;99.90
35541;DHT22;21650;48.840;9.162;2023-02-23T15:19:55;12.40;99.90
35541;DHT22;21650;48.840;9.162;2023-02-23T15:22:31;12.50;99.90
35541;DHT22;21650;48.840;9.162;2023-02-23T15:24:59;12.40;99.90
35541;DHT22;21650;48.840;9.162;2023-02-23T15:27:35;12.40;99.90
35541;DHT22;21650;48.840;9.162;2023-02-23T15:30:21;12.40;99.90
35541;DHT22;21650;48.840;9.162;2023-02-23T15:32:48;12.40;99.90
35541;DHT22;21650;48.840;9.162;2023-02-23T15:35:14;12.30;99.90
35541;DHT22;21650;48.840;9.162;2023-02-23T15:37:46;12.20;99.90
35541;DHT22;21650;48.840;9.162;2023-02-23T15:40:15;12.00;99.90
35541;DHT22;21650;48.840;9.162;2023-02-23T15:42:55;12.00;99.90
35541;DHT22;21650;48.840;9.162;2023-02-23T15:45:37;12.00;99.90
35541;DHT22;21650;48.840;9.162;2023-02-23T15:48:07;11.90;99.90
35541;DHT22;21650;48.840;9.162;2023-02-23T15:50:35;11.90;99.90
35541;DHT22;21650;48.840;9.162;2023-02-23T15:53:07;11.80;99.90
35541;DHT22;21650;48.840;9.162;2023-02-23T15:55:39;11.80;99.90
35541;DHT22;21650;48.840;9.162;2023-02-23T16:00:42;11.70;99.90
35541;DHT22;21650;48.840;9.162;2023-02-23T16:03:31;11.70;99.90
35541;DHT22;21650;48.840;9.162;2023-02-23T16:06:04;11.70;99.90
35541;DHT22;21650;48.840;9.162;2023-02-23T16:08:31;11.70;99.90
35541;DHT22;21650;48.840;9.162;2023-02-23T16:11:07;11.80;99.90
35541;DHT22;21650;48.840;9.162;2023-02-23T16:13:36;11.70;99.90
35541;DHT22;21650;48.840;9.162;2023-02-23T16:16:04;11.70;99.90
35541;DHT22;21650;48.840;9.162;2023-02-23T16:18:38;11.70;99.90
35541;DHT22;21650;48.840;9.162;2023-02-23T16:21:05;11.70;99.90
35541;DHT22;21650;48.840;9.162;2023-02-23T16:23:42;11.70;99.90
35541;DHT22;21650;48.840;9.162;2023-02-23T16:28:59;11.70;99.90
35541;DHT22;21650;48.840;9.162;2023-02-23T16:31:59;11.70;99.90
35541;DHT22;21650;48.840;9.162;2023-02-23T16:34:34;11.60;99.90
35541;DHT22;21650;48.840;9.162;2023-02-23T16:37:12;11.60;99.90
35541;DHT22;21650;48.840;9.162;2023-02-23T16:39:40;11.60;99.90
35541;DHT22;21650;48.840;9.162;2023-02-23T16:42:05;11.60;99.90
35541;DHT22;21650;48.840;9.162;2023-02-23T16:44:35;11.50;99.90
35541;DHT22;21650;48.840;9.162;2023-02-23T16:49:29;11.40;99.90
35541;DHT22;21650;48.840;9.162;2023-02-23T16:51:56;11.40;99.90
35541;DHT22;21650;48.840;9.162;2023-02-23T16:54:21;11.40;99.90
35541;DHT22;21650;48.840;9.162;2023-02-23T16:56:48;11.40;99.90
35541;DHT22;21650;48.840;9.162;2023-02-23T16:59:16;11.40;99.90
35541;DHT22;21650;48.840;9.162;2023-02-23T17:01:42;11.30;99.90
35541;DHT22;21650;48.840;9.162;2023-02-23T17:04:12;11.40;99.90
35541;DHT22;21650;48.840;9.162;2023-02-23T17:06:40;11.40;99.90
35541;DHT22;21650;48.840;9.162;2023-02-23T17:09:08;11.30;99.90
35541;DHT22;21650;48.840;9.162;2023-02-23T17:11:33;11.30;99.90
35541;DHT22;21650;48.840;9.162;2023-02-23T17:13:59;11.20;99.90
35541;DHT22;21650;48.840;9.162;2023-02-23T17:16:25;11.30;99.90
35541;DHT22;21650;48.840;9.162;2023-02-23T17:18:50;11.30;99.90
35541;DHT22;21650;48.840;9.162;2023-02-23T17:21:18;11.20;99.90
35541;DHT22;21650;48.840;9.162;2023-02-23T17:23:48;11.30;99.90
35541;DHT22;21650;48.840;9.162;2023-02-23T17:26:19;11.20;99.90
35541;DHT22;21650;48.840;9.162;2023-02-23T17:28:45;11.20;99.90
35541;DHT22;21650;48.840;9.162;2023-02-23T17:31:12;11.20;99.90
35541;DHT22;21650;48.840;9.162;2023-02-23T17:33:39;11.10;99.90
35541;DHT22;21650;48.840;9.162;2023-02-23T17:36:09;11.10;99.90
35541;DHT22;21650;48.840;9.162;2023-02-23T17:38:34;11.10;99.90
35541;DHT22;21650;48.840;9.162;2023-02-23T17:41:01;11.10;99.90
35541;DHT22;21650;48.840;9.162;2023-02-23T17:43:27;11.10;99.90
35541;DHT22;21650;48.840;9.162;2023-02-23T17:45:52;11.00;99.90
35541;DHT22;21650;48.840;9.162;2023-02-23T17:48:21;11.00;99.90
35541;DHT22;21650;48.840;9.162;2023-02-23T17:50:47;10.90;99.90
35541;DHT22;21650;48.840;9.162;2023-02-23T17:53:13;10.90;99.90
35541;DHT22;21650;48.840;9.162;2023-02-23T17:55:38;10.90;99.90
35541;DHT22;21650;48.840;9.162;2023-02-23T17:58:04;10.80;99.90
35541;DHT22;21650;48.840;9.162;2023-02-23T18:00:29;10.80;99.90
35541;DHT22;21650;48.840;9.162;2023-02-23T18:03:00;10.70;99.90
35541;DHT22;21650;48.840;9.162;2023-02-23T18:05:25;10.80;99.90
35541;DHT22;21650;48.840;9.162;2023-02-23T18:07:51;10.70;99.90